sensor_id;sensor_type;location;lat;lon;timestamp;P1;durP1;ratioP1;P2;durP2;ratioP2
29206;SDS011;16247;50.840;4.382;2022-11-14T00:00:53;28.17;;;19.70;;
29206;SDS011;16247;50.840;4.382;2022-11-14T00:03:19;26.13;;;19.08;;
29206;SDS011;16247;50.840;4.382;2022-11-14T00:05:45;29.15;;;19.55;;
29206;SDS011;16247;50.840;4.382;2022-11-14T00:08:16;26.73;;;18.40;;
29206;SDS011;16247;50.840;4.382;2022-11-14T00:10:47;29.77;;;18.95;;
29206;SDS011;16247;50.840;4.382;2022-11-14T00:13:15;28.88;;;19.08;;
29206;SDS011;16247;50.840;4.382;2022-11-14T00:15:43;28.77;;;18.33;;
29206;SDS011;16247;50.840;4.382;2022-11-14T00:18:10;26.17;;;19.05;;
29206;SDS011;16247;50.840;4.382;2022-11-14T00:20:35;27.20;;;18.90;;
29206;SDS011;16247;50.840;4.382;2022-11-14T00:23:01;26.10;;;18.17;;
29206;SDS011;16247;50.840;4.382;2022-11-14T00:25:27;28.23;;;18.40;;
29206;SDS011;16247;50.840;4.382;2022-11-14T00:27:55;25.05;;;17.50;;
29206;SDS011;16247;50.840;4.382;2022-11-14T00:30:21;25.20;;;17.45;;
29206;SDS011;16247;50.840;4.382;2022-11-14T00:32:47;25.58;;;17.50;;
29206;SDS011;16247;50.840;4.382;2022-11-14T00:35:13;24.60;;;16.88;;
29206;SDS011;16247;50.840;4.382;2022-11-14T00:37:40;25.73;;;17.63;;
29206;SDS011;16247;50.840;4.382;2022-11-14T00:40:06;24.92;;;18.58;;
29206;SDS011;16247;50.840;4.382;2022-11-14T00:42:32;26.15;;;17.45;;
29206;SDS011;16247;50.840;4.382;2022-11-14T00:44:58;23.10;;;17.20;;
29206;SDS011;16247;50.840;4.382;2022-11-14T00:47:24;23.17;;;15.32;;
29206;SDS011;16247;50.840;4.382;2022-11-14T00:49:51;22.50;;;16.58;;
29206;SDS011;16247;50.840;4.382;2022-11-14T00:52:16;26.73;;;17.73;;
29206;SDS011;16247;50.840;4.382;2022-11-14T00:54:42;21.05;;;15.52;;
29206;SDS011;16247;50.840;4.382;2022-11-14T00:57:08;26.10;;;16.08;;
29206;SDS011;16247;50.840;4.382;2022-11-14T00:59:33;20.98;;;14.43;;
29206;SDS011;16247;50.840;4.382;2022-11-14T01:01:59;25.25;;;16.88;;
29206;SDS011;16247;50.840;4.382;2022-11-14T01:04:25;24.00;;;15.48;;
29206;SDS011;16247;50.840;4.382;2022-11-14T01:06:51;24.80;;;16.23;;
29206;SDS011;16247;50.840;4.382;2022-11-14T01:09:16;20.83;;;14.38;;
29206;SDS011;16247;50.840;4.382;2022-11-14T01:11:42;19.92;;;14.30;;
29206;SDS011;16247;50.840;4.382;2022-11-14T01:14:08;20.95;;;13.55;;
29206;SDS011;16247;50.840;4.382;2022-11-14T01:16:35;21.95;;;14.98;;
29206;SDS011;16247;50.840;4.382;2022-11-14T01:19:01;21.48;;;15.13;;
29206;SDS011;16247;50.840;4.382;2022-11-14T01:21:27;18.98;;;13.15;;
29206;SDS011;16247;50.840;4.382;2022-11-14T01:23:53;21.45;;;12.63;;
29206;SDS011;16247;50.840;4.382;2022-11-14T01:26:19;22.13;;;14.35;;
29206;SDS011;16247;50.840;4.382;2022-11-14T01:28:45;18.42;;;13.65;;
29206;SDS011;16247;50.840;4.382;2022-11-14T01:31:12;20.95;;;13.15;;
29206;SDS011;16247;50.840;4.382;2022-11-14T01:33:43;19.85;;;12.57;;
29206;SDS011;16247;50.840;4.382;2022-11-14T01:36:12;20.80;;;12.13;;
29206;SDS011;16247;50.840;4.382;2022-11-14T01:38:37;21.25;;;13.77;;
29206;SDS011;16247;50.840;4.382;2022-11-14T01:41:04;19.58;;;12.90;;
29206;SDS011;16247;50.840;4.382;2022-11-14T01:43:31;18.10;;;12.07;;
29206;SDS011;16247;50.840;4.382;2022-11-14T01:53:47;17.10;;;11.40;;
29206;SDS011;16247;50.840;4.382;2022-11-14T01:59:11;20.15;;;12.48;;
29206;SDS011;16247;50.840;4.382;2022-11-14T02:01:45;21.02;;;12.25;;
29206;SDS011;16247;50.840;4.382;2022-11-14T02:04:14;15.50;;;10.45;;
29206;SDS011;16247;50.840;4.382;2022-11-14T02:06:44;17.13;;;11.13;;
29206;SDS011;16247;50.840;4.382;2022-11-14T02:09:12;18.77;;;11.05;;
29206;SDS011;16247;50.840;4.382;2022-11-14T02:11:41;16.52;;;10.77;;
29206;SDS011;16247;50.840;4.382;2022-11-14T02:14:09;16.80;;;10.68;;
29206;SDS011;16247;50.840;4.382;2022-11-14T02:16:35;17.35;;;11.55;;
29206;SDS011;16247;50.840;4.382;2022-11-14T02:19:06;17.45;;;11.50;;
29206;SDS011;16247;50.840;4.382;2022-11-14T02:21:33;16.55;;;10.95;;
29206;SDS011;16247;50.840;4.382;2022-11-14T02:24:01;17.50;;;11.73;;
29206;SDS011;16247;50.840;4.382;2022-11-14T02:28:57;16.58;;;10.95;;
29206;SDS011;16247;50.840;4.382;2022-11-14T02:31:22;16.13;;;10.82;;
29206;SDS011;16247;50.840;4.382;2022-11-14T02:33:48;15.25;;;10.80;;
29206;SDS011;16247;50.840;4.382;2022-11-14T02:36:15;15.43;;;10.55;;
29206;SDS011;16247;50.840;4.382;2022-11-14T02:38:40;14.18;;;10.18;;
29206;SDS011;16247;50.840;4.382;2022-11-14T02:41:06;15.23;;;10.38;;
29206;SDS011;16247;50.840;4.382;2022-11-14T02:43:32;17.80;;;10.45;;
29206;SDS011;16247;50.840;4.382;2022-11-14T02:45:57;16.27;;;9.43;;
29206;SDS011;16247;50.840;4.382;2022-11-14T02:48:23;14.30;;;9.70;;
29206;SDS011;16247;50.840;4.382;2022-11-14T02:50:48;15.82;;;9.15;;
29206;SDS011;16247;50.840;4.382;2022-11-14T02:53:14;15.13;;;9.50;;
29206;SDS011;16247;50.840;4.382;2022-11-14T02:55:48;15.30;;;10.25;;
29206;SDS011;16247;50.840;4.382;2022-11-14T02:58:14;14.82;;;9.45;;
29206;SDS011;16247;50.840;4.382;2022-11-14T03:00:42;15.65;;;9.32;;
29206;SDS011;16247;50.840;4.382;2022-11-14T03:03:08;16.23;;;9.80;;
29206;SDS011;16247;50.840;4.382;2022-11-14T03:05:34;14.30;;;9.90;;
29206;SDS011;16247;50.840;4.382;2022-11-14T03:08:00;16.58;;;10.50;;
29206;SDS011;16247;50.840;4.382;2022-11-14T03:12:55;12.35;;;8.45;;
29206;SDS011;16247;50.840;4.382;2022-11-14T03:15:22;14.00;;;8.82;;
29206;SDS011;16247;50.840;4.382;2022-11-14T03:17:48;14.45;;;8.93;;
29206;SDS011;16247;50.840;4.382;2022-11-14T03:20:14;15.40;;;9.65;;
29206;SDS011;16247;50.840;4.382;2022-11-14T03:22:40;16.67;;;10.23;;
29206;SDS011;16247;50.840;4.382;2022-11-14T03:25:06;14.60;;;8.93;;
29206;SDS011;16247;50.840;4.382;2022-11-14T03:27:32;13.98;;;9.13;;
29206;SDS011;16247;50.840;4.382;2022-11-14T03:29:58;11.50;;;8.02;;
29206;SDS011;16247;50.840;4.382;2022-11-14T03:32:24;13.75;;;8.68;;
29206;SDS011;16247;50.840;4.382;2022-11-14T03:34:50;12.55;;;8.88;;
29206;SDS011;16247;50.840;4.382;2022-11-14T03:37:17;15.00;;;7.70;;
29206;SDS011;16247;50.840;4.382;2022-11-14T03:39:43;10.35;;;7.97;;
29206;SDS011;16247;50.840;4.382;2022-11-14T03:42:08;15.02;;;7.20;;
29206;SDS011;16247;50.840;4.382;2022-11-14T03:44:34;11.88;;;7.65;;
29206;SDS011;16247;50.840;4.382;2022-11-14T03:47:01;11.63;;;7.22;;
29206;SDS011;16247;50.840;4.382;2022-11-14T03:49:26;12.05;;;7.60;;
29206;SDS011;16247;50.840;4.382;2022-11-14T03:51:52;11.65;;;7.68;;
29206;SDS011;16247;50.840;4.382;2022-11-14T03:54:18;12.95;;;7.97;;
29206;SDS011;16247;50.840;4.382;2022-11-14T03:56:43;13.23;;;8.02;;
29206;SDS011;16247;50.840;4.382;2022-11-14T03:59:09;12.13;;;7.97;;
29206;SDS011;16247;50.840;4.382;2022-11-14T04:01:36;10.52;;;6.70;;
29206;SDS011;16247;50.840;4.382;2022-11-14T04:04:01;10.40;;;6.93;;
29206;SDS011;16247;50.840;4.382;2022-11-14T04:06:27;13.05;;;8.13;;
29206;SDS011;16247;50.840;4.382;2022-11-14T04:08:52;13.10;;;7.65;;
29206;SDS011;16247;50.840;4.382;2022-11-14T04:11:23;12.73;;;7.38;;
29206;SDS011;16247;50.840;4.382;2022-11-14T04:13:51;13.55;;;8.57;;
29206;SDS011;16247;50.840;4.382;2022-11-14T04:16:16;13.57;;;7.85;;
29206;SDS011;16247;50.840;4.382;2022-11-14T04:18:42;11.88;;;7.88;;
29206;SDS011;16247;50.840;4.382;2022-11-14T04:21:08;12.75;;;7.38;;
29206;SDS011;16247;50.840;4.382;2022-11-14T04:23:33;10.50;;;7.20;;
29206;SDS011;16247;50.840;4.382;2022-11-14T04:25:59;12.02;;;7.13;;
29206;SDS011;16247;50.840;4.382;2022-11-14T04:28:25;15.27;;;7.88;;
29206;SDS011;16247;50.840;4.382;2022-11-14T04:30:50;9.30;;;7.03;;
29206;SDS011;16247;50.840;4.382;2022-11-14T04:33:16;11.02;;;7.45;;
29206;SDS011;16247;50.840;4.382;2022-11-14T04:35:42;12.65;;;7.07;;
29206;SDS011;16247;50.840;4.382;2022-11-14T04:38:10;12.63;;;7.80;;
29206;SDS011;16247;50.840;4.382;2022-11-14T04:40:36;12.82;;;7.88;;
29206;SDS011;16247;50.840;4.382;2022-11-14T04:43:02;11.15;;;7.13;;
29206;SDS011;16247;50.840;4.382;2022-11-14T04:45:28;14.23;;;7.78;;
29206;SDS011;16247;50.840;4.382;2022-11-14T04:47:53;15.23;;;7.18;;
29206;SDS011;16247;50.840;4.382;2022-11-14T04:50:19;16.38;;;7.45;;
29206;SDS011;16247;50.840;4.382;2022-11-14T04:52:46;9.48;;;7.00;;
29206;SDS011;16247;50.840;4.382;2022-11-14T04:55:15;11.57;;;8.25;;
29206;SDS011;16247;50.840;4.382;2022-11-14T04:57:41;13.45;;;7.63;;
29206;SDS011;16247;50.840;4.382;2022-11-14T05:00:07;12.65;;;7.10;;
29206;SDS011;16247;50.840;4.382;2022-11-14T05:02:36;10.70;;;6.80;;
29206;SDS011;16247;50.840;4.382;2022-11-14T05:05:04;13.25;;;7.47;;
29206;SDS011;16247;50.840;4.382;2022-11-14T05:07:35;13.00;;;7.18;;
29206;SDS011;16247;50.840;4.382;2022-11-14T05:10:21;11.82;;;7.30;;
29206;SDS011;16247;50.840;4.382;2022-11-14T05:12:51;12.10;;;7.43;;
29206;SDS011;16247;50.840;4.382;2022-11-14T05:16:03;13.40;;;7.88;;
29206;SDS011;16247;50.840;4.382;2022-11-14T05:18:36;14.88;;;7.65;;
29206;SDS011;16247;50.840;4.382;2022-11-14T05:21:06;13.07;;;7.80;;
29206;SDS011;16247;50.840;4.382;2022-11-14T05:24:09;13.70;;;7.97;;
29206;SDS011;16247;50.840;4.382;2022-11-14T05:36:03;11.70;;;8.30;;
29206;SDS011;16247;50.840;4.382;2022-11-14T05:38:51;9.93;;;6.70;;
29206;SDS011;16247;50.840;4.382;2022-11-14T05:41:22;16.35;;;9.13;;
29206;SDS011;16247;50.840;4.382;2022-11-14T05:43:51;13.73;;;7.97;;
29206;SDS011;16247;50.840;4.382;2022-11-14T05:46:17;14.43;;;7.53;;
29206;SDS011;16247;50.840;4.382;2022-11-14T05:48:44;12.38;;;7.82;;
29206;SDS011;16247;50.840;4.382;2022-11-14T05:51:10;13.15;;;8.65;;
29206;SDS011;16247;50.840;4.382;2022-11-14T05:53:37;11.80;;;7.30;;
29206;SDS011;16247;50.840;4.382;2022-11-14T05:56:04;14.35;;;7.60;;
29206;SDS011;16247;50.840;4.382;2022-11-14T05:58:34;12.82;;;8.50;;
29206;SDS011;16247;50.840;4.382;2022-11-14T06:01:01;13.95;;;8.43;;
29206;SDS011;16247;50.840;4.382;2022-11-14T06:03:35;14.82;;;7.68;;
29206;SDS011;16247;50.840;4.382;2022-11-14T06:06:03;13.55;;;8.27;;
29206;SDS011;16247;50.840;4.382;2022-11-14T06:08:30;13.88;;;8.48;;
29206;SDS011;16247;50.840;4.382;2022-11-14T06:11:00;16.42;;;9.60;;
29206;SDS011;16247;50.840;4.382;2022-11-14T06:13:30;15.07;;;8.05;;
29206;SDS011;16247;50.840;4.382;2022-11-14T06:15:57;12.73;;;8.68;;
29206;SDS011;16247;50.840;4.382;2022-11-14T06:18:25;12.75;;;7.75;;
29206;SDS011;16247;50.840;4.382;2022-11-14T06:20:50;13.07;;;8.57;;
29206;SDS011;16247;50.840;4.382;2022-11-14T06:23:16;9.27;;;7.60;;
29206;SDS011;16247;50.840;4.382;2022-11-14T06:25:42;14.75;;;8.38;;
29206;SDS011;16247;50.840;4.382;2022-11-14T06:28:08;13.75;;;7.57;;
29206;SDS011;16247;50.840;4.382;2022-11-14T06:30:34;14.65;;;8.50;;
29206;SDS011;16247;50.840;4.382;2022-11-14T06:33:05;11.32;;;8.00;;
29206;SDS011;16247;50.840;4.382;2022-11-14T06:35:31;14.38;;;8.13;;
29206;SDS011;16247;50.840;4.382;2022-11-14T06:38:01;14.60;;;8.50;;
29206;SDS011;16247;50.840;4.382;2022-11-14T06:40:28;15.57;;;8.45;;
29206;SDS011;16247;50.840;4.382;2022-11-14T06:42:56;13.82;;;8.07;;
29206;SDS011;16247;50.840;4.382;2022-11-14T06:45:24;16.17;;;10.15;;
29206;SDS011;16247;50.840;4.382;2022-11-14T06:47:49;19.60;;;10.13;;
29206;SDS011;16247;50.840;4.382;2022-11-14T06:50:15;17.50;;;10.20;;
29206;SDS011;16247;50.840;4.382;2022-11-14T06:52:42;14.05;;;9.70;;
29206;SDS011;16247;50.840;4.382;2022-11-14T06:55:11;14.63;;;10.13;;
29206;SDS011;16247;50.840;4.382;2022-11-14T07:00:06;21.15;;;11.25;;
29206;SDS011;16247;50.840;4.382;2022-11-14T07:02:35;23.33;;;12.45;;
29206;SDS011;16247;50.840;4.382;2022-11-14T07:05:01;18.02;;;11.13;;
29206;SDS011;16247;50.840;4.382;2022-11-14T07:10:02;20.45;;;10.88;;
29206;SDS011;16247;50.840;4.382;2022-11-14T07:12:34;21.33;;;12.63;;
29206;SDS011;16247;50.840;4.382;2022-11-14T07:15:01;26.05;;;12.43;;
29206;SDS011;16247;50.840;4.382;2022-11-14T07:17:33;26.58;;;14.52;;
29206;SDS011;16247;50.840;4.382;2022-11-14T07:20:06;25.75;;;12.02;;
29206;SDS011;16247;50.840;4.382;2022-11-14T07:22:40;19.45;;;11.40;;
29206;SDS011;16247;50.840;4.382;2022-11-14T07:25:07;17.15;;;10.45;;
29206;SDS011;16247;50.840;4.382;2022-11-14T07:27:34;25.95;;;14.75;;
29206;SDS011;16247;50.840;4.382;2022-11-14T07:30:01;21.85;;;11.60;;
29206;SDS011;16247;50.840;4.382;2022-11-14T07:32:37;17.17;;;10.40;;
29206;SDS011;16247;50.840;4.382;2022-11-14T07:37:35;23.08;;;11.80;;
29206;SDS011;16247;50.840;4.382;2022-11-14T07:40:34;21.88;;;12.07;;
29206;SDS011;16247;50.840;4.382;2022-11-14T07:43:04;18.80;;;10.55;;
29206;SDS011;16247;50.840;4.382;2022-11-14T07:48:01;20.05;;;10.52;;
29206;SDS011;16247;50.840;4.382;2022-11-14T07:50:30;21.08;;;10.82;;
29206;SDS011;16247;50.840;4.382;2022-11-14T07:52:56;17.75;;;10.15;;
29206;SDS011;16247;50.840;4.382;2022-11-14T07:55:22;20.23;;;9.52;;
29206;SDS011;16247;50.840;4.382;2022-11-14T07:58:00;18.08;;;10.52;;
29206;SDS011;16247;50.840;4.382;2022-11-14T08:00:27;22.20;;;10.25;;
29206;SDS011;16247;50.840;4.382;2022-11-14T08:02:54;22.80;;;11.02;;
29206;SDS011;16247;50.840;4.382;2022-11-14T08:05:43;17.52;;;9.52;;
29206;SDS011;16247;50.840;4.382;2022-11-14T08:08:15;20.38;;;10.75;;
29206;SDS011;16247;50.840;4.382;2022-11-14T08:10:41;18.33;;;10.00;;
29206;SDS011;16247;50.840;4.382;2022-11-14T08:13:16;20.30;;;10.85;;
29206;SDS011;16247;50.840;4.382;2022-11-14T08:16:08;19.00;;;9.88;;
29206;SDS011;16247;50.840;4.382;2022-11-14T08:18:42;20.15;;;10.13;;
29206;SDS011;16247;50.840;4.382;2022-11-14T08:21:24;19.20;;;10.18;;
29206;SDS011;16247;50.840;4.382;2022-11-14T08:23:50;17.73;;;10.70;;
29206;SDS011;16247;50.840;4.382;2022-11-14T08:26:19;21.02;;;9.68;;
29206;SDS011;16247;50.840;4.382;2022-11-14T08:29:20;22.38;;;10.77;;
29206;SDS011;16247;50.840;4.382;2022-11-14T08:31:46;17.60;;;10.68;;
29206;SDS011;16247;50.840;4.382;2022-11-14T08:34:12;20.58;;;10.50;;
29206;SDS011;16247;50.840;4.382;2022-11-14T08:36:40;22.23;;;11.05;;
29206;SDS011;16247;50.840;4.382;2022-11-14T08:39:06;19.20;;;11.57;;
29206;SDS011;16247;50.840;4.382;2022-11-14T08:41:31;22.13;;;11.88;;
29206;SDS011;16247;50.840;4.382;2022-11-14T08:44:00;21.88;;;10.38;;
29206;SDS011;16247;50.840;4.382;2022-11-14T08:46:26;18.30;;;10.15;;
29206;SDS011;16247;50.840;4.382;2022-11-14T08:48:51;16.20;;;9.88;;
29206;SDS011;16247;50.840;4.382;2022-11-14T08:51:17;17.92;;;10.70;;
29206;SDS011;16247;50.840;4.382;2022-11-14T08:53:44;18.50;;;10.40;;
29206;SDS011;16247;50.840;4.382;2022-11-14T08:56:12;18.50;;;11.27;;
29206;SDS011;16247;50.840;4.382;2022-11-14T08:58:39;19.88;;;11.20;;
29206;SDS011;16247;50.840;4.382;2022-11-14T09:01:05;18.63;;;10.63;;
29206;SDS011;16247;50.840;4.382;2022-11-14T09:03:33;19.55;;;9.75;;
29206;SDS011;16247;50.840;4.382;2022-11-14T09:05:59;21.35;;;11.02;;
29206;SDS011;16247;50.840;4.382;2022-11-14T09:08:30;18.80;;;11.85;;
29206;SDS011;16247;50.840;4.382;2022-11-14T09:11:00;23.05;;;11.23;;
29206;SDS011;16247;50.840;4.382;2022-11-14T09:13:26;25.65;;;11.68;;
29206;SDS011;16247;50.840;4.382;2022-11-14T09:15:56;18.73;;;10.65;;
29206;SDS011;16247;50.840;4.382;2022-11-14T09:18:25;22.33;;;12.70;;
29206;SDS011;16247;50.840;4.382;2022-11-14T09:21:03;19.70;;;11.77;;
29206;SDS011;16247;50.840;4.382;2022-11-14T09:23:33;21.95;;;11.25;;
29206;SDS011;16247;50.840;4.382;2022-11-14T09:26:03;18.90;;;10.70;;
29206;SDS011;16247;50.840;4.382;2022-11-14T09:28:30;21.45;;;11.68;;
29206;SDS011;16247;50.840;4.382;2022-11-14T09:31:03;17.65;;;10.65;;
29206;SDS011;16247;50.840;4.382;2022-11-14T09:38:55;22.40;;;11.82;;
29206;SDS011;16247;50.840;4.382;2022-11-14T09:51:14;20.05;;;11.95;;
29206;SDS011;16247;50.840;4.382;2022-11-14T09:53:50;27.35;;;14.15;;
29206;SDS011;16247;50.840;4.382;2022-11-14T09:56:43;23.38;;;12.65;;
29206;SDS011;16247;50.840;4.382;2022-11-14T10:02:44;26.58;;;14.15;;
29206;SDS011;16247;50.840;4.382;2022-11-14T10:08:50;22.45;;;13.63;;
29206;SDS011;16247;50.840;4.382;2022-11-14T10:11:55;25.90;;;14.15;;
29206;SDS011;16247;50.840;4.382;2022-11-14T10:32:57;20.98;;;13.38;;
29206;SDS011;16247;50.840;4.382;2022-11-14T10:38:42;23.05;;;13.18;;
29206;SDS011;16247;50.840;4.382;2022-11-14T10:44:56;18.45;;;12.18;;
29206;SDS011;16247;50.840;4.382;2022-11-14T10:48:02;25.38;;;13.77;;
29206;SDS011;16247;50.840;4.382;2022-11-14T10:57:16;28.50;;;19.55;;
29206;SDS011;16247;50.840;4.382;2022-11-14T11:00:23;20.90;;;14.10;;
29206;SDS011;16247;50.840;4.382;2022-11-14T11:02:56;23.17;;;13.88;;
29206;SDS011;16247;50.840;4.382;2022-11-14T11:05:24;22.80;;;15.57;;
29206;SDS011;16247;50.840;4.382;2022-11-14T11:08:30;26.23;;;15.45;;
29206;SDS011;16247;50.840;4.382;2022-11-14T11:14:38;27.63;;;15.60;;
29206;SDS011;16247;50.840;4.382;2022-11-14T11:17:19;23.80;;;15.20;;
29206;SDS011;16247;50.840;4.382;2022-11-14T11:26:29;23.27;;;14.87;;
29206;SDS011;16247;50.840;4.382;2022-11-14T11:33:13;25.45;;;14.27;;
29206;SDS011;16247;50.840;4.382;2022-11-14T11:36:14;22.80;;;14.30;;
29206;SDS011;16247;50.840;4.382;2022-11-14T11:48:22;27.33;;;16.75;;
29206;SDS011;16247;50.840;4.382;2022-11-14T11:51:02;26.27;;;16.48;;
29206;SDS011;16247;50.840;4.382;2022-11-14T11:56:58;24.58;;;17.33;;
29206;SDS011;16247;50.840;4.382;2022-11-14T12:09:05;32.38;;;19.20;;
29206;SDS011;16247;50.840;4.382;2022-11-14T12:27:20;31.67;;;19.70;;
29206;SDS011;16247;50.840;4.382;2022-11-14T12:30:21;32.22;;;19.67;;
29206;SDS011;16247;50.840;4.382;2022-11-14T12:33:10;34.90;;;19.67;;
29206;SDS011;16247;50.840;4.382;2022-11-14T12:39:27;35.55;;;21.25;;
29206;SDS011;16247;50.840;4.382;2022-11-14T12:48:19;34.88;;;20.05;;
29206;SDS011;16247;50.840;4.382;2022-11-14T12:57:01;37.15;;;21.33;;
29206;SDS011;16247;50.840;4.382;2022-11-14T13:00:12;35.63;;;20.33;;
29206;SDS011;16247;50.840;4.382;2022-11-14T13:52:39;32.25;;;20.08;;
29206;SDS011;16247;50.840;4.382;2022-11-14T13:56:05;42.70;;;23.25;;
29206;SDS011;16247;50.840;4.382;2022-11-14T14:02:03;35.65;;;21.45;;
29206;SDS011;16247;50.840;4.382;2022-11-14T14:07:26;36.70;;;23.55;;
29206;SDS011;16247;50.840;4.382;2022-11-14T14:10:33;36.80;;;22.85;;
29206;SDS011;16247;50.840;4.382;2022-11-14T14:13:29;39.35;;;22.60;;
29206;SDS011;16247;50.840;4.382;2022-11-14T14:19:37;38.22;;;21.48;;
29206;SDS011;16247;50.840;4.382;2022-11-14T14:31:45;38.60;;;23.25;;
29206;SDS011;16247;50.840;4.382;2022-11-14T14:37:30;32.17;;;21.30;;
29206;SDS011;16247;50.840;4.382;2022-11-14T14:39:59;37.03;;;23.40;;
29206;SDS011;16247;50.840;4.382;2022-11-14T14:45:14;34.97;;;20.42;;
29206;SDS011;16247;50.840;4.382;2022-11-14T14:51:16;32.72;;;19.33;;
29206;SDS011;16247;50.840;4.382;2022-11-14T14:57:23;31.40;;;19.67;;
29206;SDS011;16247;50.840;4.382;2022-11-14T15:03:41;38.83;;;19.75;;
29206;SDS011;16247;50.840;4.382;2022-11-14T15:10:29;35.67;;;20.05;;
29206;SDS011;16247;50.840;4.382;2022-11-14T15:13:14;34.67;;;21.13;;
29206;SDS011;16247;50.840;4.382;2022-11-14T15:18:34;31.35;;;19.15;;
29206;SDS011;16247;50.840;4.382;2022-11-14T15:31:02;31.20;;;19.95;;
29206;SDS011;16247;50.840;4.382;2022-11-14T15:34:03;31.55;;;20.00;;
29206;SDS011;16247;50.840;4.382;2022-11-14T15:39:51;28.92;;;18.33;;
29206;SDS011;16247;50.840;4.382;2022-11-14T15:42:40;27.48;;;17.88;;
29206;SDS011;16247;50.840;4.382;2022-11-14T15:45:25;27.50;;;17.83;;
29206;SDS011;16247;50.840;4.382;2022-11-14T15:48:16;29.35;;;16.70;;
29206;SDS011;16247;50.840;4.382;2022-11-14T15:50:53;27.75;;;17.73;;
29206;SDS011;16247;50.840;4.382;2022-11-14T15:53:29;24.70;;;15.48;;
29206;SDS011;16247;50.840;4.382;2022-11-14T16:01:47;26.17;;;15.95;;
29206;SDS011;16247;50.840;4.382;2022-11-14T16:04:17;26.42;;;15.23;;
29206;SDS011;16247;50.840;4.382;2022-11-14T16:07:03;24.40;;;14.23;;
29206;SDS011;16247;50.840;4.382;2022-11-14T16:09:29;25.02;;;15.05;;
29206;SDS011;16247;50.840;4.382;2022-11-14T16:11:56;23.27;;;14.98;;
29206;SDS011;16247;50.840;4.382;2022-11-14T16:14:21;25.00;;;14.07;;
29206;SDS011;16247;50.840;4.382;2022-11-14T16:16:47;26.40;;;14.63;;
29206;SDS011;16247;50.840;4.382;2022-11-14T16:19:14;25.30;;;15.55;;
29206;SDS011;16247;50.840;4.382;2022-11-14T16:24:47;22.67;;;13.82;;
29206;SDS011;16247;50.840;4.382;2022-11-14T16:28:03;23.75;;;15.02;;
29206;SDS011;16247;50.840;4.382;2022-11-14T16:34:09;24.33;;;14.57;;
29206;SDS011;16247;50.840;4.382;2022-11-14T16:36:48;25.40;;;15.45;;
29206;SDS011;16247;50.840;4.382;2022-11-14T16:42:37;23.15;;;14.80;;
29206;SDS011;16247;50.840;4.382;2022-11-14T16:45:04;23.08;;;14.93;;
29206;SDS011;16247;50.840;4.382;2022-11-14T16:47:30;24.50;;;14.07;;
29206;SDS011;16247;50.840;4.382;2022-11-14T16:49:57;23.23;;;14.55;;
29206;SDS011;16247;50.840;4.382;2022-11-14T16:52:23;19.55;;;12.05;;
29206;SDS011;16247;50.840;4.382;2022-11-14T16:54:49;29.45;;;16.20;;
29206;SDS011;16247;50.840;4.382;2022-11-14T16:57:16;22.88;;;14.52;;
29206;SDS011;16247;50.840;4.382;2022-11-14T16:59:41;21.00;;;13.05;;
29206;SDS011;16247;50.840;4.382;2022-11-14T17:02:12;32.58;;;14.65;;
29206;SDS011;16247;50.840;4.382;2022-11-14T17:04:40;21.88;;;14.60;;
29206;SDS011;16247;50.840;4.382;2022-11-14T17:07:08;24.42;;;14.52;;
29206;SDS011;16247;50.840;4.382;2022-11-14T17:09:37;21.20;;;12.75;;
29206;SDS011;16247;50.840;4.382;2022-11-14T17:12:04;27.65;;;14.45;;
29206;SDS011;16247;50.840;4.382;2022-11-14T17:14:30;28.75;;;15.07;;
29206;SDS011;16247;50.840;4.382;2022-11-14T17:16:56;20.65;;;12.05;;
29206;SDS011;16247;50.840;4.382;2022-11-14T17:19:22;23.35;;;13.77;;
29206;SDS011;16247;50.840;4.382;2022-11-14T17:21:48;25.42;;;14.27;;
29206;SDS011;16247;50.840;4.382;2022-11-14T17:24:14;25.13;;;15.07;;
29206;SDS011;16247;50.840;4.382;2022-11-14T17:26:40;26.58;;;14.38;;
29206;SDS011;16247;50.840;4.382;2022-11-14T17:29:06;26.40;;;15.18;;
29206;SDS011;16247;50.840;4.382;2022-11-14T17:31:32;25.27;;;14.68;;
29206;SDS011;16247;50.840;4.382;2022-11-14T17:34:00;23.02;;;15.13;;
29206;SDS011;16247;50.840;4.382;2022-11-14T17:36:27;26.70;;;15.07;;
29206;SDS011;16247;50.840;4.382;2022-11-14T17:38:54;26.70;;;14.80;;
29206;SDS011;16247;50.840;4.382;2022-11-14T17:41:21;26.88;;;16.48;;
29206;SDS011;16247;50.840;4.382;2022-11-14T17:43:50;27.52;;;15.88;;
29206;SDS011;16247;50.840;4.382;2022-11-14T17:46:18;26.50;;;16.08;;
29206;SDS011;16247;50.840;4.382;2022-11-14T17:48:44;30.67;;;17.38;;
29206;SDS011;16247;50.840;4.382;2022-11-14T17:51:11;31.77;;;17.88;;
29206;SDS011;16247;50.840;4.382;2022-11-14T17:53:38;30.92;;;17.60;;
29206;SDS011;16247;50.840;4.382;2022-11-14T17:56:05;29.33;;;16.50;;
29206;SDS011;16247;50.840;4.382;2022-11-14T17:58:33;27.55;;;16.05;;
29206;SDS011;16247;50.840;4.382;2022-11-14T18:01:01;29.42;;;17.27;;
29206;SDS011;16247;50.840;4.382;2022-11-14T18:03:34;29.23;;;16.70;;
29206;SDS011;16247;50.840;4.382;2022-11-14T18:06:06;31.27;;;17.25;;
29206;SDS011;16247;50.840;4.382;2022-11-14T18:08:34;33.05;;;18.92;;
29206;SDS011;16247;50.840;4.382;2022-11-14T18:11:02;33.40;;;18.02;;
29206;SDS011;16247;50.840;4.382;2022-11-14T18:13:29;35.25;;;18.70;;
29206;SDS011;16247;50.840;4.382;2022-11-14T18:16:03;33.35;;;17.90;;
29206;SDS011;16247;50.840;4.382;2022-11-14T18:18:34;32.42;;;17.52;;
29206;SDS011;16247;50.840;4.382;2022-11-14T18:23:35;39.13;;;20.10;;
29206;SDS011;16247;50.840;4.382;2022-11-14T18:28:36;40.13;;;22.40;;
29206;SDS011;16247;50.840;4.382;2022-11-14T18:31:02;41.78;;;20.35;;
29206;SDS011;16247;50.840;4.382;2022-11-14T18:33:28;38.25;;;21.88;;
29206;SDS011;16247;50.840;4.382;2022-11-14T18:35:57;36.50;;;20.48;;
29206;SDS011;16247;50.840;4.382;2022-11-14T18:38:28;42.00;;;21.23;;
29206;SDS011;16247;50.840;4.382;2022-11-14T18:40:56;38.25;;;19.90;;
29206;SDS011;16247;50.840;4.382;2022-11-14T18:43:22;36.47;;;19.95;;
29206;SDS011;16247;50.840;4.382;2022-11-14T18:45:49;42.17;;;19.98;;
29206;SDS011;16247;50.840;4.382;2022-11-14T18:48:16;39.55;;;22.05;;
29206;SDS011;16247;50.840;4.382;2022-11-14T18:50:42;37.85;;;20.55;;
29206;SDS011;16247;50.840;4.382;2022-11-14T18:53:08;42.10;;;21.70;;
29206;SDS011;16247;50.840;4.382;2022-11-14T18:55:39;36.70;;;21.00;;
29206;SDS011;16247;50.840;4.382;2022-11-14T18:58:05;35.03;;;20.27;;
29206;SDS011;16247;50.840;4.382;2022-11-14T19:00:31;38.92;;;20.50;;
29206;SDS011;16247;50.840;4.382;2022-11-14T19:02:57;37.70;;;22.10;;
29206;SDS011;16247;50.840;4.382;2022-11-14T19:05:23;41.45;;;21.50;;
29206;SDS011;16247;50.840;4.382;2022-11-14T19:07:52;42.33;;;21.38;;
29206;SDS011;16247;50.840;4.382;2022-11-14T19:10:18;39.00;;;21.83;;
29206;SDS011;16247;50.840;4.382;2022-11-14T19:12:47;36.63;;;22.48;;
29206;SDS011;16247;50.840;4.382;2022-11-14T19:15:13;36.08;;;20.85;;
29206;SDS011;16247;50.840;4.382;2022-11-14T19:17:45;37.05;;;20.85;;
29206;SDS011;16247;50.840;4.382;2022-11-14T19:20:12;37.05;;;21.60;;
29206;SDS011;16247;50.840;4.382;2022-11-14T19:22:39;38.35;;;21.13;;
29206;SDS011;16247;50.840;4.382;2022-11-14T19:25:11;37.55;;;22.20;;
29206;SDS011;16247;50.840;4.382;2022-11-14T19:27:37;38.13;;;23.10;;
29206;SDS011;16247;50.840;4.382;2022-11-14T19:30:04;35.65;;;21.25;;